createdAt,value
2023-07-29T00:00:14.521Z,2.40
2023-07-29T00:02:43.879Z,2.40
2023-07-29T00:05:11.618Z,2.30
2023-07-29T00:07:39.211Z,2.88
2023-07-29T00:10:07.821Z,2.70
2023-07-29T00:12:35.513Z,5.23
2023-07-29T00:15:03.250Z,3.40
2023-07-29T00:17:32.598Z,3.33
2023-07-29T00:20:00.304Z,3.60
2023-07-29T00:22:27.935Z,2.53
2023-07-29T00:24:56.539Z,2.07
2023-07-29T00:27:24.558Z,2.17
2023-07-29T00:29:52.807Z,2.40
2023-07-29T00:32:20.454Z,2.65
2023-07-29T00:34:48.077Z,4.07
2023-07-29T00:37:15.733Z,4.30
2023-07-29T00:39:43.680Z,4.20
2023-07-29T00:42:11.360Z,2.88
2023-07-29T00:44:39.050Z,2.42
2023-07-29T00:47:08.406Z,2.40
2023-07-29T00:49:36.942Z,3.93
2023-07-29T00:52:05.545Z,2.55
2023-07-29T00:54:33.323Z,2.65
2023-07-29T00:57:01.058Z,3.00
2023-07-29T00:59:30.298Z,2.83
2023-07-29T01:01:58.348Z,3.07
2023-07-29T01:04:26.065Z,2.40
2023-07-29T01:07:05.001Z,3.00
2023-07-29T01:09:42.225Z,3.05
2023-07-29T01:12:25.066Z,2.70
2023-07-29T01:14:57.291Z,2.67
2023-07-29T01:17:31.673Z,2.80
2023-07-29T01:20:04.455Z,2.47
2023-07-29T01:22:34.795Z,2.70
2023-07-29T01:25:03.014Z,2.80
2023-07-29T01:27:32.089Z,2.67
2023-07-29T01:30:00.496Z,2.70
2023-07-29T01:32:37.365Z,2.60
2023-07-29T01:35:11.381Z,2.47
2023-07-29T01:37:41.034Z,3.00
2023-07-29T01:40:10.590Z,2.77
2023-07-29T01:42:38.961Z,2.97
2023-07-29T01:45:06.975Z,3.10
2023-07-29T01:47:34.594Z,2.42
2023-07-29T01:50:02.339Z,2.30
2023-07-29T01:52:31.337Z,2.30
2023-07-29T01:54:59.029Z,2.97
2023-07-29T01:57:26.758Z,3.00
2023-07-29T01:59:54.349Z,2.70
2023-07-29T02:02:24.362Z,2.33
2023-07-29T02:04:53.405Z,2.50
2023-07-29T02:07:21.143Z,2.97
2023-07-29T02:09:48.837Z,2.75
2023-07-29T02:12:16.397Z,2.75
2023-07-29T02:14:44.393Z,3.00
2023-07-29T02:17:12.246Z,2.60
2023-07-29T02:19:39.869Z,2.75
2023-07-29T02:22:07.695Z,2.45
2023-07-29T02:24:35.401Z,2.47
2023-07-29T02:27:03.088Z,3.65
2023-07-29T02:29:31.808Z,2.53
2023-07-29T02:31:59.561Z,2.47
2023-07-29T02:34:27.216Z,2.63
2023-07-29T02:36:54.926Z,2.90
2023-07-29T02:39:24.598Z,3.10
2023-07-29T02:41:53.317Z,3.00
2023-07-29T02:44:21.444Z,3.40
2023-07-29T02:46:49.121Z,3.00
2023-07-29T02:49:16.861Z,3.20
2023-07-29T02:51:44.451Z,3.08
2023-07-29T02:54:12.011Z,3.43
2023-07-29T02:56:39.795Z,3.63
2023-07-29T02:59:07.530Z,3.40
2023-07-29T03:01:35.605Z,3.33
2023-07-29T03:04:03.356Z,3.38
2023-07-29T03:06:32.417Z,2.90
2023-07-29T03:09:00.053Z,3.08
2023-07-29T03:11:27.742Z,3.10
2023-07-29T03:13:55.354Z,3.03
2023-07-29T03:16:24.125Z,3.00
2023-07-29T03:18:52.076Z,2.87
2023-07-29T03:21:19.867Z,2.85
2023-07-29T03:23:47.505Z,2.67
2023-07-29T03:26:15.166Z,2.83
2023-07-29T03:28:45.343Z,2.47
2023-07-29T03:31:13.222Z,2.83
2023-07-29T03:33:40.910Z,2.70
2023-07-29T03:36:08.730Z,3.30
2023-07-29T03:38:41.187Z,2.90
2023-07-29T03:41:10.231Z,2.70
2023-07-29T03:43:37.913Z,3.00
2023-07-29T03:46:08.405Z,3.13
2023-07-29T03:48:37.762Z,2.80
2023-07-29T03:51:05.499Z,2.70
2023-07-29T03:53:33.112Z,4.05
2023-07-29T03:56:01.021Z,3.10
2023-07-29T03:58:29.112Z,3.08
2023-07-29T04:00:57.742Z,2.90
2023-07-29T04:03:25.551Z,2.60
2023-07-29T04:05:53.241Z,2.80
2023-07-29T04:08:20.974Z,2.70
2023-07-29T04:10:49.632Z,2.85
2023-07-29T04:13:17.211Z,2.55
2023-07-29T04:15:47.356Z,2.90
2023-07-29T04:18:15.073Z,3.00
2023-07-29T04:20:42.739Z,3.10
2023-07-29T04:23:10.557Z,2.90
2023-07-29T04:25:38.298Z,2.83
2023-07-29T04:28:06.612Z,3.28
2023-07-29T04:30:34.486Z,3.80
2023-07-29T04:33:02.377Z,3.27
2023-07-29T04:35:30.321Z,3.70
2023-07-29T04:37:58.017Z,3.53
2023-07-29T04:40:25.769Z,3.60
2023-07-29T04:42:53.583Z,3.67
2023-07-29T04:45:21.587Z,3.83
2023-07-29T04:47:49.331Z,3.88
2023-07-29T04:50:18.261Z,4.20
2023-07-29T04:52:45.995Z,4.00
2023-07-29T04:55:13.655Z,3.80
2023-07-29T04:57:41.595Z,3.53
2023-07-29T05:00:09.798Z,3.70
2023-07-29T05:02:37.548Z,4.10
2023-07-29T05:05:05.858Z,3.92
2023-07-29T05:07:34.064Z,3.50
2023-07-29T05:10:01.730Z,4.30
2023-07-29T05:12:34.076Z,3.72
2023-07-29T05:15:01.847Z,3.05
2023-07-29T05:17:30.150Z,3.40
2023-07-29T05:20:00.049Z,3.80
2023-07-29T05:22:27.810Z,3.40
2023-07-29T05:24:57.568Z,3.53
2023-07-29T05:27:28.326Z,7.22
2023-07-29T05:29:56.052Z,4.00
2023-07-29T05:32:23.965Z,4.75
2023-07-29T05:34:51.498Z,8.53
2023-07-29T05:37:19.075Z,4.93
2023-07-29T05:39:46.945Z,4.30
2023-07-29T05:42:14.623Z,5.93
2023-07-29T05:44:42.381Z,5.10
2023-07-29T05:47:10.869Z,3.90
2023-07-29T05:49:38.828Z,3.70
2023-07-29T05:52:06.833Z,3.20
2023-07-29T05:54:35.008Z,3.83
2023-07-29T05:57:02.801Z,3.78
2023-07-29T05:59:32.739Z,3.73
2023-07-29T06:02:02.684Z,4.10
2023-07-29T06:04:31.456Z,3.35
2023-07-29T06:06:59.248Z,3.95
2023-07-29T06:09:26.937Z,5.57
2023-07-29T06:11:55.916Z,3.67
2023-07-29T06:14:24.044Z,4.18
2023-07-29T06:16:51.738Z,3.70
2023-07-29T06:19:21.874Z,3.25
2023-07-29T06:21:49.990Z,3.85
2023-07-29T06:24:19.930Z,3.90
2023-07-29T06:26:47.552Z,4.32
2023-07-29T06:29:15.298Z,4.38
2023-07-29T06:31:42.998Z,4.30
2023-07-29T06:34:10.662Z,4.20
2023-07-29T06:36:38.721Z,4.43
2023-07-29T06:39:06.965Z,4.53
2023-07-29T06:41:34.674Z,5.05
2023-07-29T06:44:02.469Z,4.32
2023-07-29T06:46:30.262Z,5.07
2023-07-29T06:48:58.209Z,4.10
2023-07-29T06:51:25.869Z,4.40
2023-07-29T06:53:53.654Z,3.60
2023-07-29T06:56:21.272Z,3.50
2023-07-29T06:58:49.056Z,3.97
2023-07-29T07:01:16.783Z,4.50
2023-07-29T07:03:44.714Z,4.25
2023-07-29T07:06:12.440Z,4.40
2023-07-29T07:08:44.905Z,4.03
2023-07-29T07:11:12.603Z,4.43
2023-07-29T07:13:40.232Z,3.97
2023-07-29T07:16:08.073Z,3.95
2023-07-29T07:18:35.949Z,4.80
2023-07-29T07:21:03.562Z,3.83
2023-07-29T07:23:32.204Z,4.55
2023-07-29T07:25:59.940Z,4.40
2023-07-29T07:28:27.810Z,4.50
2023-07-29T07:30:57.080Z,4.13
2023-07-29T07:33:24.990Z,4.35
2023-07-29T07:35:52.737Z,3.50
2023-07-29T07:38:23.375Z,3.30
2023-07-29T07:40:58.553Z,2.85
2023-07-29T07:43:26.325Z,2.97
2023-07-29T07:46:06.857Z,2.97
2023-07-29T07:48:34.863Z,2.88
2023-07-29T07:51:11.758Z,2.20
2023-07-29T07:53:39.676Z,2.00
2023-07-29T07:56:08.337Z,2.13
2023-07-29T07:58:37.234Z,2.22
2023-07-29T08:01:09.097Z,2.38
2023-07-29T08:03:37.495Z,2.40
2023-07-29T08:06:07.111Z,3.97
2023-07-29T08:08:36.628Z,3.08
2023-07-29T08:11:04.303Z,2.67
2023-07-29T08:13:31.982Z,2.67
2023-07-29T08:15:59.678Z,2.43
2023-07-29T08:18:27.344Z,2.83
2023-07-29T08:20:56.833Z,2.78
2023-07-29T08:23:24.406Z,3.05
2023-07-29T08:25:57.589Z,2.95
2023-07-29T08:28:25.442Z,3.20
2023-07-29T08:30:53.248Z,2.80
2023-07-29T08:33:20.916Z,2.70
2023-07-29T08:35:48.651Z,2.70
2023-07-29T08:38:17.717Z,3.35
2023-07-29T08:40:58.493Z,2.60
2023-07-29T08:43:33.868Z,2.40
2023-07-29T08:46:02.213Z,2.55
2023-07-29T08:48:41.541Z,2.05
2023-07-29T08:51:13.450Z,2.70
2023-07-29T08:53:41.508Z,2.70
2023-07-29T08:56:09.551Z,2.58
2023-07-29T08:58:38.023Z,2.72
2023-07-29T09:01:05.761Z,2.75
2023-07-29T09:03:33.805Z,2.38
2023-07-29T09:06:03.824Z,2.70
2023-07-29T09:08:31.555Z,3.70
2023-07-29T09:10:59.372Z,3.35
2023-07-29T09:13:27.128Z,2.60
2023-07-29T09:15:59.398Z,2.63
2023-07-29T09:18:28.297Z,2.20
2023-07-29T09:21:02.344Z,2.10
2023-07-29T09:23:30.216Z,2.47
2023-07-29T09:26:04.723Z,2.33
2023-07-29T09:28:37.204Z,2.22
2023-07-29T09:31:05.446Z,2.00
2023-07-29T09:33:38.140Z,2.55
2023-07-29T09:36:12.103Z,2.50
2023-07-29T09:38:41.013Z,2.30
2023-07-29T09:41:08.909Z,2.00
2023-07-29T09:43:36.916Z,2.30
2023-07-29T09:46:06.431Z,1.70
2023-07-29T09:48:35.646Z,1.90
2023-07-29T09:51:14.267Z,2.20
2023-07-29T09:53:47.608Z,1.70
2023-07-29T09:56:16.804Z,2.37
2023-07-29T09:58:47.302Z,2.13
2023-07-29T10:01:15.711Z,1.60
2023-07-29T10:03:45.619Z,1.90
2023-07-29T10:06:15.712Z,2.05
2023-07-29T10:08:44.652Z,1.90
2023-07-29T10:11:13.020Z,2.20
2023-07-29T10:13:40.876Z,2.03
2023-07-29T10:16:08.896Z,2.40
2023-07-29T10:18:36.570Z,2.65
2023-07-29T10:21:04.744Z,2.20
2023-07-29T10:23:38.582Z,2.40
2023-07-29T10:26:09.377Z,2.28
2023-07-29T10:28:41.348Z,2.33
2023-07-29T10:31:11.102Z,2.67
2023-07-29T10:33:39.361Z,3.70
2023-07-29T10:36:07.386Z,2.25
2023-07-29T10:38:35.316Z,2.08
2023-07-29T10:41:03.033Z,1.85
2023-07-29T10:43:36.012Z,1.85
2023-07-29T10:46:24.103Z,1.60
2023-07-29T10:48:51.820Z,1.95
2023-07-29T10:51:37.678Z,2.08
2023-07-29T10:54:12.206Z,2.47
2023-07-29T10:56:44.425Z,2.10
2023-07-29T10:59:18.006Z,1.90
2023-07-29T11:02:09.969Z,1.73
2023-07-29T11:04:48.416Z,1.77
2023-07-29T11:07:19.185Z,1.98
2023-07-29T11:09:49.992Z,2.17
2023-07-29T11:12:37.951Z,2.10
2023-07-29T11:15:14.736Z,2.25
2023-07-29T11:18:02.410Z,2.50
2023-07-29T11:20:39.183Z,2.78
2023-07-29T11:23:07.306Z,2.53
2023-07-29T11:25:35.220Z,2.63
2023-07-29T11:28:05.785Z,2.65
2023-07-29T11:30:35.468Z,2.60
2023-07-29T11:33:06.465Z,2.40
2023-07-29T11:35:34.751Z,2.53
2023-07-29T11:38:02.394Z,2.40
2023-07-29T11:40:30.406Z,2.10
2023-07-29T11:42:57.973Z,2.35
2023-07-29T11:45:38.650Z,2.30
2023-07-29T11:48:19.798Z,2.20
2023-07-29T11:50:48.119Z,2.83
2023-07-29T11:53:17.519Z,2.10
2023-07-29T11:55:45.505Z,2.05
2023-07-29T11:58:13.203Z,1.50
2023-07-29T12:00:41.251Z,1.67
2023-07-29T12:03:11.265Z,2.00
2023-07-29T12:05:39.329Z,2.10
2023-07-29T12:08:07.169Z,1.88
2023-07-29T12:10:35.605Z,2.05
2023-07-29T12:13:04.741Z,2.53
2023-07-29T12:15:32.432Z,2.40
2023-07-29T12:18:01.783Z,1.90
2023-07-29T12:20:31.457Z,1.60
2023-07-29T12:23:04.127Z,1.58
2023-07-29T12:25:32.261Z,1.65
2023-07-29T12:28:09.199Z,1.80
2023-07-29T12:30:43.661Z,1.90
2023-07-29T12:33:11.725Z,2.50
2023-07-29T12:35:39.939Z,2.28
2023-07-29T12:38:07.807Z,2.40
2023-07-29T12:40:40.159Z,2.43
2023-07-29T12:43:07.855Z,2.45
2023-07-29T12:45:41.397Z,2.45
2023-07-29T12:48:10.463Z,2.47
2023-07-29T12:50:39.932Z,2.30
2023-07-29T12:53:09.238Z,3.47
2023-07-29T12:55:37.107Z,3.00
2023-07-29T12:58:05.046Z,2.70
2023-07-29T13:00:32.851Z,2.30
2023-07-29T13:03:00.702Z,1.80
2023-07-29T13:05:28.501Z,1.70
2023-07-29T13:07:56.040Z,1.90
2023-07-29T13:10:23.794Z,1.60
2023-07-29T13:12:51.371Z,1.80
2023-07-29T13:15:18.954Z,1.60
2023-07-29T13:17:46.634Z,1.30
2023-07-29T13:20:14.262Z,1.63
2023-07-29T13:22:41.927Z,1.30
2023-07-29T13:25:09.603Z,1.30
2023-07-29T13:27:37.431Z,1.20
2023-07-29T13:30:06.036Z,1.30
2023-07-29T13:32:33.964Z,1.50
2023-07-29T13:35:01.654Z,1.50
2023-07-29T13:37:31.617Z,1.48
2023-07-29T13:39:59.398Z,1.58
2023-07-29T13:42:27.442Z,1.30
2023-07-29T13:44:56.217Z,1.25
2023-07-29T13:47:23.913Z,1.23
2023-07-29T13:49:51.567Z,1.10
2023-07-29T13:52:19.177Z,1.30
2023-07-29T13:54:46.918Z,1.47
2023-07-29T13:57:14.622Z,1.48
2023-07-29T13:59:42.270Z,1.90
2023-07-29T14:02:11.037Z,1.92
2023-07-29T14:04:42.162Z,1.45
2023-07-29T14:07:13.171Z,1.70
2023-07-29T14:09:42.049Z,1.83
2023-07-29T14:12:13.601Z,1.98
2023-07-29T14:14:41.314Z,1.90
2023-07-29T14:17:12.235Z,1.80
2023-07-29T14:19:39.949Z,1.97
2023-07-29T14:22:07.752Z,1.77
2023-07-29T14:24:36.484Z,2.00
2023-07-29T14:27:04.635Z,2.05
2023-07-29T14:29:32.394Z,1.83
2023-07-29T14:32:00.231Z,2.00
2023-07-29T14:34:27.841Z,1.95
2023-07-29T14:36:57.807Z,1.67
2023-07-29T14:39:25.621Z,1.92
2023-07-29T14:41:53.315Z,1.92
2023-07-29T14:44:21.078Z,1.93
2023-07-29T14:46:49.201Z,2.40
2023-07-29T14:49:16.883Z,1.90
2023-07-29T14:51:45.117Z,1.85
2023-07-29T14:54:12.780Z,1.95
2023-07-29T14:56:40.371Z,1.40
2023-07-29T14:59:08.001Z,1.55
2023-07-29T15:01:35.888Z,1.65
2023-07-29T15:04:03.740Z,1.77
2023-07-29T15:06:31.595Z,1.90
2023-07-29T15:08:59.466Z,2.03
2023-07-29T15:11:27.064Z,2.58
2023-07-29T15:13:54.812Z,2.28
2023-07-29T15:16:25.636Z,2.40
2023-07-29T15:18:53.714Z,2.13
2023-07-29T15:21:21.574Z,2.10
2023-07-29T15:23:49.246Z,2.38
2023-07-29T15:26:16.895Z,2.55
2023-07-29T15:28:44.533Z,2.40
2023-07-29T15:31:14.676Z,2.65
2023-07-29T15:33:42.605Z,2.37
2023-07-29T15:36:10.233Z,3.00
2023-07-29T15:38:37.962Z,2.85
2023-07-29T15:41:05.737Z,2.33
2023-07-29T15:43:33.474Z,2.20
2023-07-29T15:46:01.501Z,2.50
2023-07-29T15:48:29.508Z,2.20
2023-07-29T15:50:57.161Z,2.40
2023-07-29T15:53:26.266Z,1.95
2023-07-29T15:55:53.942Z,1.85
2023-07-29T15:58:21.681Z,1.70
2023-07-29T16:00:49.317Z,1.88
2023-07-29T16:03:17.111Z,2.35
2023-07-29T16:05:47.887Z,2.10
2023-07-29T16:08:15.944Z,2.00
2023-07-29T16:10:43.665Z,1.80
2023-07-29T16:13:11.552Z,1.95
2023-07-29T16:15:39.127Z,1.60
2023-07-29T16:18:06.805Z,1.50
2023-07-29T16:20:34.419Z,1.83
2023-07-29T16:23:02.044Z,2.10
2023-07-29T16:25:30.256Z,2.35
2023-07-29T16:27:58.481Z,2.28
2023-07-29T16:30:26.261Z,2.28
2023-07-29T16:32:53.924Z,1.70
2023-07-29T16:35:21.567Z,2.60
2023-07-29T16:37:51.361Z,1.80
2023-07-29T16:40:19.542Z,2.20
2023-07-29T16:42:47.375Z,1.90
2023-07-29T16:45:15.075Z,2.47
2023-07-29T16:47:42.801Z,2.37
2023-07-29T16:50:11.250Z,2.35
2023-07-29T16:52:39.313Z,2.67
2023-07-29T16:55:08.357Z,1.80
2023-07-29T16:57:36.149Z,2.00
2023-07-29T17:00:04.869Z,1.70
2023-07-29T17:02:35.336Z,1.88
2023-07-29T17:05:05.500Z,2.22
2023-07-29T17:07:33.376Z,2.10
2023-07-29T17:10:01.870Z,2.20
2023-07-29T17:12:31.651Z,2.00
2023-07-29T17:14:59.250Z,2.20
2023-07-29T17:17:26.918Z,2.30
2023-07-29T17:19:54.674Z,2.33
2023-07-29T17:22:22.385Z,2.40
2023-07-29T17:24:50.121Z,2.60
2023-07-29T17:27:17.731Z,2.78
2023-07-29T17:29:45.774Z,2.53
2023-07-29T17:32:13.466Z,2.10
2023-07-29T17:34:41.093Z,1.80
2023-07-29T17:37:08.680Z,2.10
2023-07-29T17:39:38.345Z,2.05
2023-07-29T17:42:07.784Z,2.33
2023-07-29T17:44:35.426Z,2.50
2023-07-29T17:47:03.129Z,2.50
2023-07-29T17:49:31.083Z,2.40
2023-07-29T17:51:58.840Z,2.85
2023-07-29T17:54:26.632Z,2.45
2023-07-29T17:56:54.328Z,2.72
2023-07-29T17:59:21.979Z,2.60
2023-07-29T18:01:50.705Z,2.57
2023-07-29T18:04:18.424Z,2.90
2023-07-29T18:06:46.027Z,2.45
2023-07-29T18:09:13.716Z,2.33
2023-07-29T18:11:43.050Z,1.90
2023-07-29T18:14:10.760Z,2.20
2023-07-29T18:16:42.469Z,1.98
2023-07-29T18:19:10.326Z,2.20
2023-07-29T18:21:37.984Z,2.00
2023-07-29T18:24:06.432Z,2.05
2023-07-29T18:26:35.114Z,2.00
2023-07-29T18:29:03.051Z,2.00
2023-07-29T18:31:30.789Z,2.60
2023-07-29T18:34:01.062Z,3.15
2023-07-29T18:36:31.437Z,2.80
2023-07-29T18:38:59.188Z,2.67
2023-07-29T18:41:28.074Z,2.60
2023-07-29T18:43:59.236Z,2.75
2023-07-29T18:46:31.205Z,1.88
2023-07-29T18:49:00.185Z,2.22
2023-07-29T18:51:28.145Z,2.30
2023-07-29T18:53:55.863Z,2.50
2023-07-29T18:56:23.800Z,2.30
2023-07-29T18:58:51.410Z,2.20
2023-07-29T19:01:19.063Z,2.40
2023-07-29T19:03:47.554Z,2.37
2023-07-29T19:06:15.559Z,2.40
2023-07-29T19:08:43.216Z,3.30
2023-07-29T19:11:11.697Z,3.10
2023-07-29T19:13:41.565Z,2.08
2023-07-29T19:16:10.966Z,2.63
2023-07-29T19:18:38.606Z,2.47
2023-07-29T19:21:08.243Z,2.35
2023-07-29T19:23:36.013Z,2.42
2023-07-29T19:26:03.802Z,2.22
2023-07-29T19:28:31.420Z,2.40
2023-07-29T19:30:59.395Z,2.40
2023-07-29T19:33:27.046Z,2.58
2023-07-29T19:35:56.778Z,2.28
2023-07-29T19:38:24.833Z,2.10
2023-07-29T19:40:52.702Z,2.60
2023-07-29T19:43:20.581Z,2.08
2023-07-29T19:46:11.657Z,2.33
2023-07-29T19:48:36.917Z,1.80
2023-07-29T19:51:04.587Z,1.92
2023-07-29T19:53:32.133Z,1.50
2023-07-29T19:56:00.097Z,1.40
2023-07-29T19:58:27.896Z,1.70
2023-07-29T20:00:55.710Z,2.13
2023-07-29T20:03:23.459Z,2.10
2023-07-29T20:05:51.148Z,3.67
2023-07-29T20:08:18.848Z,2.30
2023-07-29T20:10:47.514Z,1.83
2023-07-29T20:13:15.764Z,2.00
2023-07-29T20:15:43.485Z,2.15
2023-07-29T20:18:11.452Z,2.03
2023-07-29T20:20:39.106Z,2.00
2023-07-29T20:23:08.011Z,1.67
2023-07-29T20:25:36.329Z,2.00
2023-07-29T20:28:04.127Z,1.83
2023-07-29T20:30:32.085Z,2.30
2023-07-29T20:33:00.056Z,1.88
2023-07-29T20:35:27.829Z,1.40
2023-07-29T20:37:55.626Z,1.85
2023-07-29T20:40:23.412Z,1.58
2023-07-29T20:42:51.055Z,1.70
2023-07-29T20:45:18.750Z,1.60
2023-07-29T20:47:46.480Z,1.60
2023-07-29T20:50:14.441Z,1.02
2023-07-29T20:52:42.054Z,1.20
2023-07-29T20:55:10.038Z,1.40
2023-07-29T20:57:37.750Z,1.20
2023-07-29T21:00:06.526Z,1.70
2023-07-29T21:02:35.578Z,1.40
2023-07-29T21:05:05.493Z,1.10
2023-07-29T21:07:33.337Z,1.40
2023-07-29T21:10:02.936Z,1.23
2023-07-29T21:12:33.285Z,1.20
2023-07-29T21:15:04.127Z,1.25
2023-07-29T21:17:32.365Z,1.25
2023-07-29T21:20:01.594Z,1.13
2023-07-29T21:22:31.577Z,1.38
2023-07-29T21:24:59.456Z,1.40
2023-07-29T21:27:27.224Z,1.75
2023-07-29T21:29:55.273Z,1.30
2023-07-29T21:32:23.061Z,0.97
2023-07-29T21:34:50.844Z,1.20
2023-07-29T21:37:29.591Z,1.30
2023-07-29T21:40:04.613Z,1.40
2023-07-29T21:42:34.069Z,1.13
2023-07-29T21:45:02.115Z,1.20
2023-07-29T21:47:33.673Z,1.30
2023-07-29T21:50:01.330Z,1.60
2023-07-29T21:52:29.920Z,1.40
2023-07-29T21:54:57.779Z,1.80
2023-07-29T21:57:25.720Z,1.40
2023-07-29T21:59:53.827Z,1.40
2023-07-29T22:02:21.622Z,1.38
2023-07-29T22:04:49.600Z,1.38
2023-07-29T22:07:17.482Z,1.30
2023-07-29T22:09:45.069Z,1.60
2023-07-29T22:12:12.741Z,1.55
2023-07-29T22:14:40.400Z,1.50
2023-07-29T22:17:08.112Z,1.38
2023-07-29T22:19:35.766Z,1.30
2023-07-29T22:22:04.060Z,1.50
2023-07-29T22:24:31.720Z,1.60
2023-07-29T22:27:01.250Z,1.90
2023-07-29T22:29:28.830Z,1.73
2023-07-29T22:31:56.689Z,1.90
2023-07-29T22:34:24.528Z,1.70
2023-07-29T22:36:52.343Z,1.45
2023-07-29T22:39:20.891Z,1.40
2023-07-29T22:41:48.485Z,1.40
2023-07-29T22:44:16.023Z,1.63
2023-07-29T22:46:47.109Z,1.40
2023-07-29T22:49:14.738Z,1.70
2023-07-29T22:51:42.328Z,1.42
2023-07-29T22:54:09.901Z,1.80
2023-07-29T22:56:37.915Z,1.55
2023-07-29T22:59:06.083Z,1.30
2023-07-29T23:01:33.881Z,1.27
2023-07-29T23:04:01.692Z,1.30
2023-07-29T23:06:30.604Z,1.50
2023-07-29T23:08:58.185Z,1.50
2023-07-29T23:11:25.871Z,1.63
2023-07-29T23:13:53.532Z,1.60
2023-07-29T23:16:21.405Z,1.33
2023-07-29T23:18:49.092Z,1.40
2023-07-29T23:21:16.641Z,1.60
2023-07-29T23:23:44.993Z,1.40
2023-07-29T23:26:12.772Z,1.50
2023-07-29T23:28:41.590Z,1.23
2023-07-29T23:31:09.254Z,1.30
2023-07-29T23:33:36.912Z,1.50
2023-07-29T23:36:04.772Z,1.40
2023-07-29T23:38:32.436Z,1.63
2023-07-29T23:41:00.117Z,1.40
2023-07-29T23:43:27.736Z,1.23
2023-07-29T23:45:55.800Z,1.60
2023-07-29T23:48:23.599Z,1.50
2023-07-29T23:50:51.575Z,1.45
2023-07-29T23:53:19.271Z,1.40
2023-07-29T23:55:46.944Z,1.42
2023-07-29T23:58:15.198Z,1.60
